Mason City Municipal Airport
KMCW : now visible

Airfield :











YOU CAN JOIN US ON...

 
LOGIN :

Register | Disclaimer

   EN    FR    IT 

 









Legend :    VFR   Marginal VFR   IFR   Intensive IFR   Very Intensive IFR
Visi :
Ceiling :
>= 8 km
>= 3000ft
5 to 8 km
1000 to 3000 ft
1500m to 5 km
500 to 1000 ft
800 to 1500m
200 to 500 ft
< 800m
< 200 ft
Symbols :   Thunderstorms  Fog  Heavy snow  Heavy precipitations  Wind > 20 kt






- Airport Elevation : 1213 ft


KMCW - Mason City Municipal

CURRENT METAR :
  • 300953Z AUTO 31008KT 10SM CLR M19/M22 A3044 RMK AO2 SLP336 T11941222

EXPIRED METARs :
  • 300853Z AUTO 31011KT 10SM CLR M18/M22 A3043 RMK AO2 SLP333 T11831217 51001
  • 300753Z AUTO 31012KT 10SM FEW075 M18/M21 A3043 RMK AO2 SLP332 T11781211

TAF KMCW
Valid from the 30 at 06:00 until the 31 at 06:00 UTC


300520Z 3006/3106 30009KT P6SM BKN080
KZMP FIR / North America



MET'MAP, your aeronautical weather chart ! - Copyright ORBIFLY December 2007 - Disclaimer

ORBIFLY MET'MAP TEAM :

Programming & Development : Alexandra Zaïnal
Original concept : Baudouin d'Aumeries
Technical & hardware support : Manuel Goepfert
Assistance : Marc-Olivier Méhu




SOURCES & CREDITS :

   NOAA       Earth
Advisory